createdAt,value
2022-12-18T00:01:46.070Z,76.20
2022-12-18T00:04:23.362Z,76.20
2022-12-18T00:06:51.310Z,76.20
2022-12-18T00:09:18.250Z,76.20
2022-12-18T00:11:45.727Z,76.40
2022-12-18T00:14:12.939Z,76.10
2022-12-18T00:16:40.332Z,76.10
2022-12-18T00:19:08.574Z,76.20
2022-12-18T00:21:35.705Z,76.10
2022-12-18T00:24:02.697Z,76.20
2022-12-18T00:26:30.672Z,76.30
2022-12-18T00:29:08.779Z,76.10
2022-12-18T00:31:36.017Z,75.80
2022-12-18T00:34:03.119Z,75.80
2022-12-18T00:36:31.141Z,75.80
2022-12-18T00:38:58.558Z,76.20
2022-12-18T00:41:44.456Z,76.10
2022-12-18T00:44:12.612Z,76.20
2022-12-18T00:46:39.683Z,76.80
2022-12-18T00:49:07.688Z,76.00
2022-12-18T00:51:35.338Z,76.00
2022-12-18T00:54:02.382Z,76.10
2022-12-18T00:56:29.345Z,76.20
2022-12-18T00:58:56.589Z,76.20
2022-12-18T01:01:23.787Z,76.10
2022-12-18T01:03:50.831Z,76.40
2022-12-18T01:06:17.987Z,76.40
2022-12-18T01:08:45.265Z,76.30
2022-12-18T01:11:17.748Z,76.50
2022-12-18T01:13:45.222Z,76.30
2022-12-18T01:16:13.312Z,76.40
2022-12-18T01:18:40.476Z,76.20
2022-12-18T01:21:14.980Z,76.20
2022-12-18T01:23:42.737Z,76.20
2022-12-18T01:26:11.874Z,76.20
2022-12-18T01:28:39.167Z,75.90
2022-12-18T01:31:15.249Z,75.90
2022-12-18T01:33:42.823Z,75.90
2022-12-18T01:36:10.041Z,75.80
2022-12-18T01:38:37.118Z,75.90
2022-12-18T01:41:04.381Z,75.90
2022-12-18T01:43:44.454Z,75.80
2022-12-18T01:46:11.694Z,75.90
2022-12-18T01:48:38.803Z,75.90
2022-12-18T01:51:06.174Z,75.90
2022-12-18T01:53:33.400Z,76.00
2022-12-18T01:56:00.601Z,76.00
2022-12-18T01:58:41.254Z,75.80
2022-12-18T02:01:08.331Z,75.90
2022-12-18T02:03:35.725Z,75.90
2022-12-18T02:06:06.312Z,75.70
2022-12-18T02:08:52.069Z,76.10
2022-12-18T02:11:29.076Z,75.80
2022-12-18T02:14:09.127Z,75.90
2022-12-18T02:16:42.384Z,76.00
2022-12-18T02:19:36.308Z,76.10
2022-12-18T02:22:12.483Z,75.90
2022-12-18T02:24:45.693Z,75.90
2022-12-18T02:27:12.825Z,76.00
2022-12-18T02:29:45.455Z,75.90
2022-12-18T02:32:16.544Z,75.90
2022-12-18T02:34:43.654Z,75.90
2022-12-18T02:37:16.035Z,75.80
2022-12-18T02:39:44.222Z,75.80
2022-12-18T02:42:13.464Z,75.80
2022-12-18T02:44:51.055Z,75.90
2022-12-18T02:47:25.254Z,75.80
2022-12-18T02:49:58.306Z,75.90
2022-12-18T02:52:29.402Z,75.80
2022-12-18T02:55:21.652Z,75.80
2022-12-18T02:58:12.950Z,75.70
2022-12-18T03:00:40.362Z,75.70
2022-12-18T03:03:08.773Z,75.80
2022-12-18T03:05:42.956Z,75.70
2022-12-18T03:08:20.441Z,75.70
2022-12-18T03:11:09.334Z,75.70
2022-12-18T03:13:51.916Z,75.70
2022-12-18T03:16:27.384Z,75.70
2022-12-18T03:18:56.200Z,75.70
2022-12-18T03:21:27.169Z,75.70
2022-12-18T03:23:54.201Z,75.70
2022-12-18T03:26:24.765Z,75.90
2022-12-18T03:28:57.391Z,75.80
2022-12-18T03:31:26.067Z,76.00
2022-12-18T03:33:57.135Z,75.90
2022-12-18T03:36:31.252Z,76.20
2022-12-18T03:38:58.394Z,76.00
2022-12-18T03:41:34.848Z,76.10
2022-12-18T03:44:35.033Z,76.20
2022-12-18T03:47:20.315Z,76.40
2022-12-18T03:49:47.443Z,76.40
2022-12-18T03:52:35.663Z,76.50
2022-12-18T03:55:02.788Z,76.40
2022-12-18T03:57:31.656Z,76.30
2022-12-18T04:00:01.174Z,76.20
2022-12-18T04:02:42.225Z,76.20
2022-12-18T04:05:09.503Z,76.10
2022-12-18T04:07:39.691Z,76.20
2022-12-18T04:10:09.298Z,76.20
2022-12-18T04:12:39.263Z,76.40
2022-12-18T04:15:09.836Z,76.30
2022-12-18T04:17:37.114Z,76.40
2022-12-18T04:20:04.953Z,76.40
2022-12-18T04:22:32.272Z,76.50
2022-12-18T04:25:00.274Z,76.50
2022-12-18T04:27:35.419Z,76.50
2022-12-18T04:30:04.786Z,77.50
2022-12-18T04:32:34.476Z,76.80
2022-12-18T04:35:01.749Z,76.70
2022-12-18T04:37:29.003Z,76.80
2022-12-18T04:39:56.025Z,76.80
2022-12-18T04:42:34.148Z,76.80
2022-12-18T04:45:01.127Z,76.90
2022-12-18T04:47:28.278Z,76.90
2022-12-18T04:49:55.497Z,76.90
2022-12-18T04:52:25.309Z,76.90
2022-12-18T04:54:52.295Z,76.90
2022-12-18T04:57:19.438Z,76.90
2022-12-18T04:59:47.099Z,76.90
2022-12-18T05:02:14.186Z,77.00
2022-12-18T05:04:41.505Z,77.00
2022-12-18T05:07:08.459Z,77.00
2022-12-18T05:09:35.492Z,77.10
2022-12-18T05:12:02.851Z,77.20
2022-12-18T05:14:30.462Z,78.00
2022-12-18T05:17:00.800Z,77.30
2022-12-18T05:19:28.353Z,77.20
2022-12-18T05:21:55.242Z,77.40
2022-12-18T05:24:22.283Z,77.30
2022-12-18T05:26:49.535Z,77.50
2022-12-18T05:29:19.451Z,77.40
2022-12-18T05:31:47.101Z,77.50
2022-12-18T05:34:14.178Z,78.20
2022-12-18T05:36:41.687Z,77.40
2022-12-18T05:39:08.712Z,77.40
2022-12-18T05:41:35.836Z,77.30
2022-12-18T05:44:02.768Z,77.30
2022-12-18T05:46:30.594Z,77.40
2022-12-18T05:49:00.236Z,77.40
2022-12-18T05:51:27.085Z,77.30
2022-12-18T05:53:54.056Z,77.30
2022-12-18T05:56:21.952Z,77.30
2022-12-18T05:58:48.962Z,77.40
2022-12-18T06:01:17.237Z,77.10
2022-12-18T06:03:44.771Z,77.30
2022-12-18T06:06:16.634Z,77.20
2022-12-18T06:08:46.463Z,77.10
2022-12-18T06:11:14.356Z,77.10
2022-12-18T06:13:41.595Z,77.00
2022-12-18T06:16:09.284Z,76.80
2022-12-18T06:18:36.480Z,77.00
2022-12-18T06:21:03.417Z,76.70
2022-12-18T06:23:30.421Z,76.50
2022-12-18T06:25:57.683Z,76.50
2022-12-18T06:28:24.659Z,76.20
2022-12-18T06:30:51.576Z,76.30
2022-12-18T06:33:18.761Z,76.00
2022-12-18T06:35:46.202Z,75.90
2022-12-18T06:38:13.125Z,76.00
2022-12-18T06:40:40.616Z,75.70
2022-12-18T06:43:07.550Z,76.30
2022-12-18T06:45:34.610Z,75.50
2022-12-18T06:48:02.165Z,75.30
2022-12-18T06:50:29.077Z,76.00
2022-12-18T06:52:56.049Z,75.00
2022-12-18T06:55:23.321Z,75.10
2022-12-18T06:57:50.279Z,74.90
2022-12-18T07:00:17.604Z,74.50
2022-12-18T07:02:44.920Z,74.20
2022-12-18T07:05:14.856Z,74.40
2022-12-18T07:07:41.772Z,74.20
2022-12-18T07:10:08.957Z,74.20
2022-12-18T07:12:36.287Z,73.60
2022-12-18T07:15:03.384Z,73.80
2022-12-18T07:17:30.853Z,73.70
2022-12-18T07:19:57.791Z,73.70
2022-12-18T07:22:26.025Z,73.50
2022-12-18T07:24:53.204Z,72.90
2022-12-18T07:27:20.161Z,72.40
2022-12-18T07:29:47.059Z,72.20
2022-12-18T07:32:14.242Z,71.80
2022-12-18T07:34:41.209Z,71.10
2022-12-18T07:37:08.261Z,71.20
2022-12-18T07:39:35.425Z,71.40
2022-12-18T07:42:21.256Z,72.20
2022-12-18T07:44:49.370Z,71.30
2022-12-18T07:47:16.899Z,71.30
2022-12-18T07:49:43.882Z,72.00
2022-12-18T07:52:13.419Z,71.30
2022-12-18T07:54:41.349Z,71.80
2022-12-18T07:57:21.284Z,71.70
2022-12-18T07:59:55.765Z,71.60
2022-12-18T08:02:22.725Z,71.30
2022-12-18T08:04:49.882Z,71.10
2022-12-18T08:07:17.215Z,71.50
2022-12-18T08:09:44.400Z,72.00
2022-12-18T08:12:11.417Z,71.50
2022-12-18T08:14:38.748Z,71.40
2022-12-18T08:17:05.908Z,71.50
2022-12-18T08:19:32.799Z,71.50
2022-12-18T08:22:00.071Z,71.80
2022-12-18T08:24:27.026Z,71.70
2022-12-18T08:27:13.454Z,71.80
2022-12-18T08:29:41.355Z,71.80
2022-12-18T08:32:08.336Z,72.00
2022-12-18T08:34:35.523Z,72.00
2022-12-18T08:37:02.732Z,71.90
2022-12-18T08:39:29.655Z,72.20
2022-12-18T08:42:15.543Z,72.00
2022-12-18T08:44:42.767Z,72.20
2022-12-18T08:47:09.832Z,72.00
2022-12-18T08:49:36.999Z,71.20
2022-12-18T08:52:04.060Z,71.20
2022-12-18T08:54:31.155Z,70.40
2022-12-18T08:56:58.340Z,70.90
2022-12-18T08:59:25.480Z,70.50
2022-12-18T09:01:54.389Z,70.50
2022-12-18T09:04:21.458Z,70.00
2022-12-18T09:06:48.524Z,70.10
2022-12-18T09:09:17.679Z,70.20
2022-12-18T09:11:44.714Z,70.50
2022-12-18T09:14:11.680Z,70.00
2022-12-18T09:16:38.847Z,70.50
2022-12-18T09:19:05.971Z,69.90
2022-12-18T09:21:34.337Z,69.50
2022-12-18T09:24:04.601Z,69.60
2022-12-18T09:26:35.267Z,69.90
2022-12-18T09:29:03.087Z,70.40
2022-12-18T09:31:30.039Z,70.70
2022-12-18T09:33:57.724Z,70.10
2022-12-18T09:36:24.768Z,69.50
2022-12-18T09:38:51.895Z,69.30
2022-12-18T09:41:37.685Z,68.80
2022-12-18T09:44:19.383Z,69.40
2022-12-18T09:46:59.552Z,68.80
2022-12-18T09:49:27.973Z,69.30
2022-12-18T09:52:03.171Z,69.70
2022-12-18T09:54:34.871Z,69.10
2022-12-18T09:57:02.047Z,69.10
2022-12-18T09:59:33.744Z,69.50
2022-12-18T10:02:01.094Z,69.20
2022-12-18T10:04:28.645Z,68.60
2022-12-18T10:07:09.343Z,68.10
2022-12-18T10:09:59.894Z,68.10
2022-12-18T10:12:40.398Z,68.30
2022-12-18T10:15:08.725Z,67.40
2022-12-18T10:17:51.509Z,66.80
2022-12-18T10:20:22.275Z,67.10
2022-12-18T10:22:52.514Z,66.00
2022-12-18T10:25:38.442Z,65.90
2022-12-18T10:28:10.976Z,66.00
2022-12-18T10:30:37.911Z,63.30
2022-12-18T10:33:04.916Z,64.30
2022-12-18T10:35:32.006Z,62.60
2022-12-18T10:38:02.838Z,63.00
2022-12-18T10:40:32.088Z,63.80
2022-12-18T10:43:04.342Z,62.30
2022-12-18T10:45:31.374Z,63.40
2022-12-18T10:47:59.176Z,62.80
2022-12-18T10:51:09.356Z,62.10
2022-12-18T10:53:24.150Z,62.60
2022-12-18T10:55:51.507Z,63.00
2022-12-18T10:58:26.732Z,63.20
2022-12-18T11:01:09.626Z,62.80
2022-12-18T11:03:37.866Z,63.40
2022-12-18T11:06:06.009Z,64.00
2022-12-18T11:08:33.255Z,63.80
2022-12-18T11:11:00.301Z,63.50
2022-12-18T11:13:27.755Z,63.40
2022-12-18T11:15:55.006Z,63.50
2022-12-18T11:18:25.407Z,63.20
2022-12-18T11:20:59.067Z,63.90
2022-12-18T11:23:26.239Z,63.70
2022-12-18T11:26:00.525Z,64.50
2022-12-18T11:28:49.325Z,64.80
2022-12-18T11:31:17.142Z,65.40
2022-12-18T11:34:04.950Z,65.90
2022-12-18T11:36:34.744Z,66.70
2022-12-18T11:39:03.497Z,67.10
2022-12-18T11:41:50.860Z,67.90
2022-12-18T11:44:25.326Z,68.30
2022-12-18T11:46:57.363Z,69.60
2022-12-18T11:49:26.843Z,70.60
2022-12-18T11:51:54.038Z,71.80
2022-12-18T11:54:21.162Z,72.50
2022-12-18T11:57:00.351Z,72.90
2022-12-18T11:59:35.822Z,73.80
2022-12-18T12:02:19.439Z,74.00
2022-12-18T12:04:58.780Z,74.60
2022-12-18T12:07:25.828Z,75.00
2022-12-18T12:09:52.954Z,75.60
2022-12-18T12:12:19.978Z,75.90
2022-12-18T12:14:56.320Z,76.20
2022-12-18T12:17:54.005Z,76.50
2022-12-18T12:20:22.452Z,76.60
2022-12-18T12:22:49.396Z,76.50
2022-12-18T12:25:28.238Z,76.60
2022-12-18T12:27:55.201Z,76.90
2022-12-18T12:30:23.657Z,77.10
2022-12-18T12:33:01.241Z,77.50
2022-12-18T12:35:46.840Z,77.70
2022-12-18T12:38:17.769Z,78.20
2022-12-18T12:41:05.044Z,78.20
2022-12-18T12:43:50.432Z,78.00
2022-12-18T12:46:18.794Z,78.00
2022-12-18T12:48:49.663Z,78.60
2022-12-18T12:51:24.999Z,78.90
2022-12-18T12:53:53.059Z,78.90
2022-12-18T12:56:20.836Z,78.90
2022-12-18T12:58:50.577Z,79.20
2022-12-18T13:01:24.320Z,79.20
2022-12-18T13:03:57.855Z,79.10
2022-12-18T13:06:30.259Z,79.20
2022-12-18T13:09:01.052Z,79.40
2022-12-18T13:11:57.954Z,79.60
2022-12-18T13:14:37.340Z,79.80
2022-12-18T13:17:17.686Z,79.60
2022-12-18T13:19:45.052Z,79.90
2022-12-18T13:22:30.311Z,80.10
2022-12-18T13:24:57.243Z,80.10
2022-12-18T13:27:53.825Z,80.40
2022-12-18T13:30:35.241Z,80.50
2022-12-18T13:33:18.849Z,80.70
2022-12-18T13:35:48.859Z,81.50
2022-12-18T13:38:45.802Z,80.90
2022-12-18T13:41:16.057Z,81.00
2022-12-18T13:43:45.779Z,81.00
2022-12-18T13:46:22.929Z,81.10
2022-12-18T13:48:54.319Z,81.10
2022-12-18T13:51:21.552Z,81.20
2022-12-18T13:53:52.743Z,81.30
2022-12-18T13:56:22.189Z,81.30
2022-12-18T13:59:08.295Z,81.40
2022-12-18T14:01:35.358Z,81.40
2022-12-18T14:04:21.461Z,81.40
2022-12-18T14:06:48.924Z,81.40
2022-12-18T14:09:21.323Z,81.40
2022-12-18T14:11:53.065Z,81.50
2022-12-18T14:14:20.264Z,81.60
2022-12-18T14:16:47.733Z,81.50
2022-12-18T14:19:16.927Z,81.60
2022-12-18T14:21:47.724Z,81.60
2022-12-18T14:24:19.386Z,81.70
2022-12-18T14:26:47.388Z,81.70
2022-12-18T14:29:21.740Z,81.70
2022-12-18T14:32:13.297Z,81.90
2022-12-18T14:34:47.482Z,81.90
2022-12-18T14:37:15.972Z,81.80
2022-12-18T14:39:53.079Z,81.90
2022-12-18T14:42:20.288Z,81.90
2022-12-18T14:47:34.463Z,81.80
2022-12-18T14:50:01.393Z,81.90
2022-12-18T14:52:29.074Z,81.80
2022-12-18T14:54:56.175Z,81.90
2022-12-18T14:57:27.559Z,81.80
2022-12-18T14:59:54.580Z,81.70
2022-12-18T15:02:28.165Z,81.80
2022-12-18T15:05:11.296Z,81.70
2022-12-18T15:07:59.540Z,81.90
2022-12-18T15:10:33.318Z,81.80
2022-12-18T15:13:01.664Z,81.90
2022-12-18T15:15:35.068Z,81.90
2022-12-18T15:18:02.689Z,81.70
2022-12-18T15:20:31.414Z,81.50
2022-12-18T15:22:58.356Z,81.50
2022-12-18T15:25:28.760Z,81.70
2022-12-18T15:27:55.860Z,81.50
2022-12-18T15:30:23.390Z,81.40
2022-12-18T15:32:50.642Z,81.20
2022-12-18T15:35:24.315Z,81.10
2022-12-18T15:37:54.743Z,81.20
2022-12-18T15:40:22.925Z,81.40
2022-12-18T15:43:08.709Z,81.50
2022-12-18T15:45:35.863Z,81.00
2022-12-18T15:48:08.766Z,81.70
2022-12-18T15:50:35.959Z,81.00
2022-12-18T15:53:03.398Z,81.50
2022-12-18T15:55:57.825Z,81.00
2022-12-18T15:58:27.892Z,81.80
2022-12-18T16:00:55.038Z,81.20
2022-12-18T16:03:22.057Z,80.50
2022-12-18T16:05:50.512Z,81.10
2022-12-18T16:08:17.659Z,81.20
2022-12-18T16:10:44.690Z,81.40
2022-12-18T16:13:11.957Z,81.70
2022-12-18T16:15:39.107Z,81.40
2022-12-18T16:18:06.156Z,81.30
2022-12-18T16:20:33.365Z,80.90
2022-12-18T16:23:00.455Z,81.00
2022-12-18T16:25:28.371Z,81.20
2022-12-18T16:27:56.266Z,80.60
2022-12-18T16:30:24.565Z,81.80
2022-12-18T16:32:53.017Z,80.90
2022-12-18T16:35:20.105Z,81.80
2022-12-18T16:37:47.269Z,81.70
2022-12-18T16:40:14.867Z,81.60
2022-12-18T16:42:42.832Z,81.10
2022-12-18T16:45:14.155Z,81.80
2022-12-18T16:47:41.446Z,82.00
2022-12-18T16:50:08.645Z,81.70
2022-12-18T16:52:35.981Z,82.40
2022-12-18T16:55:03.254Z,81.90
2022-12-18T16:57:30.246Z,81.60
2022-12-18T17:00:02.985Z,82.20
2022-12-18T17:02:32.229Z,82.00
2022-12-18T17:04:59.532Z,82.40
2022-12-18T17:07:26.711Z,81.50
2022-12-18T17:09:54.472Z,81.80
2022-12-18T17:12:21.603Z,83.10
2022-12-18T17:14:48.741Z,80.90
2022-12-18T17:17:23.983Z,81.90
2022-12-18T17:19:51.738Z,83.00
2022-12-18T17:22:19.015Z,82.90
2022-12-18T17:24:49.535Z,83.70
2022-12-18T17:27:17.228Z,82.40
2022-12-18T17:29:47.811Z,82.50
2022-12-18T17:32:16.012Z,82.10
2022-12-18T17:34:42.954Z,82.90
2022-12-18T17:37:10.001Z,83.00
2022-12-18T17:39:37.093Z,82.10
2022-12-18T17:42:05.323Z,82.80
2022-12-18T17:44:34.414Z,83.50
2022-12-18T17:47:01.568Z,83.90
2022-12-18T17:49:28.799Z,83.90
2022-12-18T17:51:55.947Z,83.40
2022-12-18T17:54:22.947Z,83.00
2022-12-18T17:56:50.595Z,83.50
2022-12-18T17:59:17.789Z,83.50
2022-12-18T18:01:46.025Z,83.10
2022-12-18T18:04:13.463Z,83.60
2022-12-18T18:06:40.637Z,83.60
2022-12-18T18:09:09.942Z,83.40
2022-12-18T18:12:02.079Z,84.20
2022-12-18T18:14:29.391Z,84.60
2022-12-18T18:16:56.881Z,84.40
2022-12-18T18:19:26.275Z,84.50
2022-12-18T18:21:53.706Z,84.40
2022-12-18T18:24:23.696Z,84.80
2022-12-18T18:26:50.813Z,84.70
2022-12-18T18:29:19.203Z,84.90
2022-12-18T18:31:46.892Z,84.70
2022-12-18T18:34:18.510Z,84.70
2022-12-18T18:36:46.824Z,84.90
2022-12-18T18:39:14.141Z,84.40
2022-12-18T18:41:41.193Z,84.40
2022-12-18T18:44:13.276Z,84.70
2022-12-18T18:46:40.767Z,84.90
2022-12-18T18:49:07.916Z,84.40
2022-12-18T18:51:35.496Z,84.60
2022-12-18T18:54:02.751Z,85.10
2022-12-18T18:59:17.543Z,85.10
2022-12-18T19:01:44.870Z,84.90
2022-12-18T19:04:11.909Z,85.10
2022-12-18T19:06:39.043Z,84.70
2022-12-18T19:09:06.989Z,85.30
2022-12-18T19:11:53.029Z,84.80
2022-12-18T19:14:23.268Z,85.30
2022-12-18T19:16:50.333Z,84.90
2022-12-18T19:19:21.206Z,85.20
2022-12-18T19:21:49.170Z,85.10
2022-12-18T19:24:16.656Z,85.00
2022-12-18T19:26:43.803Z,86.20
2022-12-18T19:29:11.025Z,85.10
2022-12-18T19:31:38.180Z,85.10
2022-12-18T19:34:06.891Z,85.40
2022-12-18T19:36:35.083Z,84.90
2022-12-18T19:39:02.101Z,85.10
2022-12-18T19:41:31.133Z,84.90
2022-12-18T19:44:08.233Z,85.00
2022-12-18T19:46:36.152Z,84.90
2022-12-18T19:49:10.640Z,85.50
2022-12-18T19:51:38.120Z,84.70
2022-12-18T19:54:05.142Z,84.40
2022-12-18T19:56:32.946Z,84.90
2022-12-18T19:59:00.036Z,85.30
2022-12-18T20:01:27.523Z,85.10
2022-12-18T20:03:55.437Z,84.80
2022-12-18T20:06:28.164Z,84.40
2022-12-18T20:08:57.977Z,84.00
2022-12-18T20:11:28.473Z,84.30
2022-12-18T20:13:55.386Z,83.30
2022-12-18T20:16:22.492Z,83.30
2022-12-18T20:18:49.616Z,83.90
2022-12-18T20:21:17.018Z,83.80
2022-12-18T20:23:44.593Z,84.20
2022-12-18T20:26:13.253Z,84.20
2022-12-18T20:28:40.490Z,83.50
2022-12-18T20:31:13.407Z,84.00
2022-12-18T20:33:42.043Z,82.70
2022-12-18T20:36:11.410Z,83.80
2022-12-18T20:38:39.780Z,84.00
2022-12-18T20:41:12.674Z,83.50
2022-12-18T20:43:39.993Z,82.90
2022-12-18T20:46:10.782Z,83.80
2022-12-18T20:48:38.128Z,82.70
2022-12-18T20:51:06.832Z,82.70
2022-12-18T20:53:35.149Z,82.60
2022-12-18T20:56:06.139Z,84.60
2022-12-18T20:58:33.074Z,84.20
2022-12-18T21:01:06.771Z,83.10
2022-12-18T21:03:34.711Z,84.20
2022-12-18T21:06:05.139Z,83.00
2022-12-18T21:08:32.285Z,83.80
2022-12-18T21:11:35.678Z,83.70
2022-12-18T21:14:03.102Z,84.90
2022-12-18T21:16:32.431Z,84.20
2022-12-18T21:18:59.551Z,84.70
2022-12-18T21:21:27.223Z,85.20
2022-12-18T21:23:54.695Z,85.10
2022-12-18T21:26:25.579Z,85.10
2022-12-18T21:28:56.094Z,84.50
2022-12-18T21:31:24.073Z,85.00
2022-12-18T21:33:52.017Z,85.30
2022-12-18T21:36:22.973Z,84.60
2022-12-18T21:38:50.106Z,85.10
2022-12-18T21:41:41.890Z,86.30
2022-12-18T21:44:11.021Z,85.80
2022-12-18T21:46:38.914Z,86.30
2022-12-18T21:49:06.335Z,86.00
2022-12-18T21:51:33.592Z,85.70
2022-12-18T21:54:00.748Z,86.00
2022-12-18T21:56:47.807Z,85.70
2022-12-18T21:59:15.882Z,85.70
2022-12-18T22:01:42.989Z,85.90
2022-12-18T22:04:10.282Z,85.60
2022-12-18T22:06:37.936Z,86.20
2022-12-18T22:09:04.909Z,85.60
2022-12-18T22:11:32.096Z,86.40
2022-12-18T22:13:59.266Z,86.00
2022-12-18T22:16:26.331Z,85.50
2022-12-18T22:18:53.334Z,85.30
2022-12-18T22:21:29.036Z,85.30
2022-12-18T22:23:57.391Z,85.10
2022-12-18T22:26:24.937Z,86.00
2022-12-18T22:29:10.965Z,86.10
2022-12-18T22:31:38.288Z,86.80
2022-12-18T22:34:05.562Z,85.70
2022-12-18T22:36:39.616Z,85.80
2022-12-18T22:39:06.831Z,85.90
2022-12-18T22:41:34.304Z,86.90
2022-12-18T22:44:01.488Z,86.20
2022-12-18T22:46:29.456Z,86.80
2022-12-18T22:48:56.553Z,86.40
2022-12-18T22:51:23.758Z,86.60
2022-12-18T22:53:50.790Z,86.60
2022-12-18T22:56:21.191Z,87.60
2022-12-18T22:58:49.616Z,86.90
2022-12-18T23:01:23.497Z,87.30
2022-12-18T23:03:50.845Z,87.20
2022-12-18T23:06:18.386Z,87.60
2022-12-18T23:08:45.941Z,86.70
2022-12-18T23:11:13.188Z,86.20
2022-12-18T23:13:41.807Z,87.30
2022-12-18T23:16:09.490Z,85.80
2022-12-18T23:18:36.711Z,85.80
2022-12-18T23:21:04.663Z,86.60
2022-12-18T23:23:33.980Z,86.10
2022-12-18T23:26:02.109Z,86.40
2022-12-18T23:28:29.145Z,86.00
2022-12-18T23:31:06.147Z,85.30
2022-12-18T23:33:33.657Z,86.30
2022-12-18T23:36:01.308Z,85.90
2022-12-18T23:38:28.308Z,85.50
2022-12-18T23:40:55.713Z,85.90
2022-12-18T23:43:24.264Z,86.30
2022-12-18T23:45:55.636Z,85.60
2022-12-18T23:48:23.172Z,85.70
2022-12-18T23:50:50.118Z,85.80
2022-12-18T23:53:17.164Z,86.00
2022-12-18T23:55:44.495Z,86.00
2022-12-18T23:58:16.020Z,84.50
